Time;durP1;ratioP1;P1;durP2;ratioP2;P2;SDS_P1;SDS_P2;PMS_P1;PMS_P2;Temp;Humidity;BMP_temperature;BMP_pressure;BME280_temperature;BME280_humidity;BME280_pressure;Samples;Min_cycle;Max_cycle;Signal;HPM_P1;HPM_P2
2023/03/11 00:00:24;;;;;;;12.33;7.60;;;0.70;99.90;;;;;;5079213;28;20457;-62
2023/03/11 00:02:54;;;;;;;7.87;7.13;;;0.80;99.90;;;;;;5079035;28;20458;-62
2023/03/11 00:05:25;;;;;;;7.40;6.50;;;0.70;99.90;;;;;;5077742;28;20461;-62
2023/03/11 00:07:53;;;;;;;7.93;6.30;;;0.70;99.90;;;;;;5078023;28;20469;-61
2023/03/11 00:10:22;;;;;;;9.83;5.80;;;0.70;99.90;;;;;;5058177;28;20457;-62
2023/03/11 00:12:50;;;;;;;6.67;6.03;;;0.70;99.90;;;;;;5058158;28;20482;-61
2023/03/11 00:15:17;;;;;;;7.53;6.00;;;0.70;99.90;;;;;;5058532;28;20469;-62
2023/03/11 00:17:44;;;;;;;5.60;4.83;;;0.70;99.90;;;;;;5057205;28;20494;-61
2023/03/11 00:20:18;;;;;;;6.63;5.53;;;0.70;99.90;;;;;;5072515;28;20504;-62
2023/03/11 00:22:46;;;;;;;8.93;6.40;;;0.70;99.90;;;;;;5077891;28;20476;-62
2023/03/11 00:25:14;;;;;;;6.20;5.57;;;0.60;56.20;;;;;;5078214;28;20471;-61
2023/03/11 00:27:41;;;;;;;6.27;5.67;;;0.70;6.80;;;;;;5077745;28;20439;-61
2023/03/11 00:30:10;;;;;;;8.10;7.30;;;0.70;1.00;;;;;;5077298;28;20763;-61
2023/03/11 00:32:38;;;;;;;9.07;8.17;;;0.70;1.00;;;;;;5076737;28;20512;-61
2023/03/11 00:35:06;;;;;;;8.27;6.97;;;0.70;7.20;;;;;;5077022;28;20469;-60
2023/03/11 00:37:33;;;;;;;8.40;7.53;;;0.80;78.90;;;;;;5077835;28;20444;-59
2023/03/11 00:40:07;;;;;;;7.97;7.00;;;0.80;4.90;;;;;;5077296;28;20461;-61
2023/03/11 00:42:34;;;;;;;7.87;6.57;;;0.80;79.40;;;;;;5077775;28;20483;-61
2023/03/11 00:45:01;;;;;;;8.70;7.27;;;0.70;1.00;;;;;;5077603;28;20474;-61
2023/03/11 00:47:28;;;;;;;8.57;6.30;;;0.70;1.00;;;;;;5077787;28;20472;-61
2023/03/11 00:49:55;;;;;;;8.40;7.10;;;0.80;1.00;;;;;;5077445;28;20465;-60
2023/03/11 00:52:22;;;;;;;7.63;5.77;;;0.80;1.00;;;;;;5076504;28;20798;-61
2023/03/11 00:54:49;;;;;;;8.77;5.87;;;0.70;99.90;;;;;;5065925;28;20861;-60
2023/03/11 00:57:18;;;;;;;6.57;5.60;;;0.70;99.90;;;;;;5077667;28;21002;-61
2023/03/11 00:59:45;;;;;;;6.60;5.90;;;0.70;99.90;;;;;;5077705;28;20464;-61
2023/03/11 01:02:12;;;;;;;6.60;5.47;;;0.70;99.90;;;;;;5077586;28;20910;-62
2023/03/11 01:04:39;;;;;;;5.50;4.60;;;0.70;1.00;;;;;;5077969;28;20443;-61
2023/03/11 01:07:06;;;;;;;7.37;4.63;;;0.70;1.00;;;;;;5076883;28;20918;-61
2023/03/11 01:09:33;;;;;;;6.07;4.10;;;0.70;99.90;;;;;;5077330;28;20897;-61
2023/03/11 01:12:00;;;;;;;4.83;4.33;;;0.60;99.90;;;;;;5075577;28;20761;-61
2023/03/11 01:14:29;;;;;;;5.00;4.50;;;0.60;37.50;;;;;;5057764;28;20471;-61
2023/03/11 01:16:56;;;;;;;5.97;4.90;;;0.60;71.50;;;;;;5057555;28;20462;-61
2023/03/11 01:19:23;;;;;;;5.97;4.53;;;0.60;99.90;;;;;;5057392;28;20490;-61
2023/03/11 01:21:50;;;;;;;6.10;4.57;;;0.60;1.00;;;;;;5072483;28;20467;-59
2023/03/11 01:24:17;;;;;;;6.00;4.80;;;0.60;99.90;;;;;;5077623;28;20467;-60
2023/03/11 01:26:44;;;;;;;8.37;5.80;;;0.60;99.90;;;;;;5075978;28;20465;-55
2023/03/11 01:29:11;;;;;;;4.70;4.20;;;0.60;99.90;;;;;;5077833;28;20446;-60
2023/03/11 01:31:40;;;;;;;6.17;4.50;;;0.70;99.90;;;;;;5079712;28;20461;-60
2023/03/11 01:34:07;;;;;;;5.53;4.60;;;0.60;1.00;;;;;;5080267;28;20464;-58
2023/03/11 01:36:34;;;;;;;10.40;4.00;;;0.60;99.90;;;;;;5079539;28;20447;-59
2023/03/11 01:39:01;;;;;;;5.97;4.83;;;0.60;1.00;;;;;;5079666;28;20766;-59
2023/03/11 01:41:28;;;;;;;7.67;4.97;;;0.60;99.90;;;;;;5080030;28;20448;-59
2023/03/11 01:43:55;;;;;;;7.53;5.00;;;0.70;1.00;;;;;;5079973;28;20471;-55
2023/03/11 01:46:24;;;;;;;5.03;4.43;;;0.60;1.00;;;;;;5080552;28;20777;-60
2023/03/11 01:48:54;;;;;;;6.00;5.10;;;0.60;99.90;;;;;;5078786;28;20770;-57
2023/03/11 01:51:27;;;;;;;6.27;5.67;;;0.60;99.90;;;;;;5079700;28;20476;-55
2023/03/11 01:53:57;;;;;;;7.47;6.17;;;0.70;1.00;;;;;;5080237;28;20500;-59
2023/03/11 01:56:24;;;;;;;8.97;5.80;;;0.70;1.00;;;;;;5079609;28;20432;-54
2023/03/11 01:58:53;;;;;;;9.10;6.93;;;0.70;1.00;;;;;;5078753;28;20465;-57
2023/03/11 02:01:22;;;;;;;10.53;7.00;;;0.70;17.80;;;;;;5079284;28;20475;-59
2023/03/11 02:03:49;;;;;;;13.27;6.97;;;0.70;1.00;;;;;;5079486;28;20458;-55
2023/03/11 02:06:21;;;;;;;15.27;7.03;;;0.70;1.00;;;;;;5080016;28;20485;-57
2023/03/11 02:08:49;;;;;;;8.77;6.63;;;0.60;99.90;;;;;;5079503;28;20460;-60
2023/03/11 02:11:19;;;;;;;11.47;8.07;;;0.60;1.00;;;;;;5078426;28;20465;-59
2023/03/11 02:13:47;;;;;;;10.40;7.30;;;0.60;99.90;;;;;;5079752;28;20493;-61
2023/03/11 02:16:14;;;;;;;9.70;7.30;;;0.70;99.90;;;;;;5079678;28;20476;-61
2023/03/11 02:18:42;;;;;;;8.57;5.77;;;0.60;99.90;;;;;;5078838;28;20493;-60
2023/03/11 02:21:22;;;;;;;9.50;6.80;;;0.40;1.00;;;;;;5078116;28;20461;-61
2023/03/11 02:23:57;;;;;;;7.37;5.50;;;0.50;2.10;;;;;;5079701;28;20472;-62
2023/03/11 02:26:31;;;;;;;9.60;6.17;;;0.50;53.30;;;;;;5079596;28;20465;-62
2023/03/11 02:29:03;;;;;;;5.93;4.77;;;0.50;99.80;;;;;;5079645;28;20457;-62
2023/03/11 02:31:31;;;;;;;10.67;5.73;;;0.40;11.80;;;;;;5078803;28;20764;-62
2023/03/11 02:34:01;;;;;;;8.50;4.70;;;0.40;1.00;;;;;;5079344;28;20787;-62
2023/03/11 02:36:37;;;;;;;8.93;5.07;;;0.40;1.00;;;;;;5079530;28;20764;-62
2023/03/11 02:39:06;;;;;;;9.93;5.30;;;0.40;99.90;;;;;;5078682;28;20468;-62
2023/03/11 02:41:35;;;;;;;7.57;4.03;;;0.40;1.00;;;;;;5078243;28;20465;-63
2023/03/11 02:44:07;;;;;;;6.90;4.67;;;0.40;1.00;;;;;;5079349;28;20480;-63
2023/03/11 02:46:35;;;;;;;10.20;4.77;;;0.30;1.00;;;;;;5079440;28;20865;-63
2023/03/11 02:49:03;;;;;;;9.00;5.00;;;0.40;1.00;;;;;;5078960;28;20461;-64
2023/03/11 02:51:30;;;;;;;8.37;4.90;;;0.40;1.30;;;;;;5078762;28;20527;-64
2023/03/11 02:54:01;;;;;;;8.27;5.10;;;0.40;99.90;;;;;;5077815;28;20845;-64
2023/03/11 02:56:28;;;;;;;9.70;6.10;;;0.40;99.90;;;;;;5079194;28;20902;-64
2023/03/11 02:58:55;;;;;;;7.37;5.00;;;0.40;99.90;;;;;;5078544;28;20461;-64
2023/03/11 03:01:24;;;;;;;9.67;6.33;;;0.30;99.90;;;;;;5078659;28;20465;-64
2023/03/11 03:03:51;;;;;;;8.93;6.70;;;0.30;99.90;;;;;;5077952;28;20511;-64
2023/03/11 03:06:18;;;;;;;7.70;6.53;;;0.40;99.90;;;;;;5078233;28;20479;-64
2023/03/11 03:08:45;;;;;;;8.63;6.10;;;0.30;99.90;;;;;;5078405;28;20491;-64
2023/03/11 03:11:12;;;;;;;11.30;6.07;;;0.40;99.90;;;;;;5078461;28;20602;-64
2023/03/11 03:13:39;;;;;;;9.90;5.87;;;0.40;99.90;;;;;;5077589;28;20496;-63
2023/03/11 03:16:07;;;;;;;7.47;4.90;;;0.40;99.90;;;;;;5078864;28;20870;-64
2023/03/11 03:18:35;;;;;;;14.40;6.13;;;0.30;8.10;;;;;;5077875;28;20933;-64
2023/03/11 03:21:03;;;;;;;12.50;4.90;;;0.30;1.00;;;;;;5078128;28;20470;-64
2023/03/11 03:23:33;;;;;;;7.40;4.50;;;0.30;99.90;;;;;;5078227;28;20460;-64
2023/03/11 03:26:01;;;;;;;8.53;4.10;;;0.40;99.90;;;;;;5078489;28;20469;-64
2023/03/11 03:28:28;;;;;;;9.43;4.13;;;0.30;99.90;;;;;;5077193;28;20463;-64
2023/03/11 03:30:56;;;;;;;11.10;3.77;;;0.40;1.00;;;;;;5077260;28;20466;-64
2023/03/11 03:33:23;;;;;;;10.20;3.30;;;0.40;1.00;;;;;;5077951;28;20546;-64
2023/03/11 03:35:51;;;;;;;12.40;3.47;;;0.30;1.00;;;;;;5077727;28;20495;-64
2023/03/11 03:38:18;;;;;;;9.63;3.83;;;0.20;99.90;;;;;;5076251;28;20469;-64
2023/03/11 03:40:49;;;;;;;15.13;3.37;;;0.30;1.00;;;;;;5075746;28;20468;-64
2023/03/11 03:43:16;;;;;;;7.83;3.07;;;0.20;1.00;;;;;;5075737;28;20466;-64
2023/03/11 03:45:43;;;;;;;12.90;4.60;;;0.20;99.90;;;;;;5076298;28;20870;-65
2023/03/11 03:48:10;;;;;;;8.90;3.10;;;0.20;99.90;;;;;;5076812;28;20461;-65
2023/03/11 03:50:39;;;;;;;9.13;3.60;;;0.30;99.90;;;;;;5076851;28;20785;-65
2023/03/11 03:53:07;;;;;;;7.10;3.33;;;0.20;99.90;;;;;;5077163;28;20489;-65
2023/03/11 03:55:34;;;;;;;14.67;3.80;;;0.20;99.90;;;;;;5061511;28;20466;-65
2023/03/11 03:58:01;;;;;;;10.47;2.90;;;0.20;92.20;;;;;;5061233;28;20764;-65
2023/03/11 04:00:28;;;;;;;6.43;3.20;;;0.20;41.80;;;;;;5077685;28;20466;-65
2023/03/11 04:02:55;;;;;;;12.60;4.07;;;0.20;40.10;;;;;;5077357;28;20464;-65
2023/03/11 04:05:25;;;;;;;7.23;3.10;;;0.20;23.60;;;;;;5076698;28;20890;-65
2023/03/11 04:07:52;;;;;;;12.50;3.80;;;0.30;5.60;;;;;;5077135;28;20473;-65
2023/03/11 04:10:21;;;;;;;17.80;4.60;;;0.20;1.00;;;;;;5077818;28;20854;-65
2023/03/11 04:12:48;;;;;;;10.53;3.17;;;0.30;1.00;;;;;;5077081;28;20468;-65
2023/03/11 04:15:15;;;;;;;9.50;3.60;;;0.30;1.00;;;;;;5076793;28;20465;-65
2023/03/11 04:17:42;;;;;;;5.83;3.23;;;0.30;1.00;;;;;;5077602;28;20933;-65
2023/03/11 04:20:10;;;;;;;11.93;4.00;;;0.20;1.00;;;;;;5077303;28;20469;-65
2023/03/11 04:22:37;;;;;;;8.23;3.40;;;0.20;1.00;;;;;;5077669;28;20461;-65
2023/03/11 04:25:05;;;;;;;9.30;3.70;;;0.30;99.90;;;;;;5077277;28;20886;-65
2023/03/11 04:27:34;;;;;;;11.10;3.93;;;0.30;99.90;;;;;;5077532;28;20891;-65
2023/03/11 04:30:01;;;;;;;6.20;3.17;;;0.20;99.90;;;;;;5076437;28;20457;-64
2023/03/11 04:32:28;;;;;;;8.50;3.60;;;0.20;99.90;;;;;;5076319;28;20480;-65
2023/03/11 04:34:59;;;;;;;10.63;4.10;;;0.20;99.90;;;;;;5076794;28;20489;-66
2023/03/11 04:37:29;;;;;;;8.43;3.77;;;0.20;99.90;;;;;;5077222;28;20965;-64
2023/03/11 04:40:03;;;;;;;6.27;3.73;;;0.20;99.90;;;;;;5076789;28;20824;-65
2023/03/11 04:42:45;;;;;;;10.80;3.60;;;0.30;99.90;;;;;;5075695;28;20443;-65
2023/03/11 04:45:12;;;;;;;8.63;3.60;;;0.20;99.90;;;;;;5076868;28;20465;-64
2023/03/11 04:47:39;;;;;;;8.73;2.90;;;0.30;99.90;;;;;;5077636;28;20540;-64
2023/03/11 04:50:07;;;;;;;6.67;3.47;;;0.20;99.90;;;;;;5077373;28;20465;-64
2023/03/11 04:52:34;;;;;;;12.07;3.80;;;0.20;90.40;;;;;;5077257;28;20488;-64
2023/03/11 04:55:01;;;;;;;9.47;3.60;;;0.20;90.40;;;;;;5076631;28;20489;-64
2023/03/11 04:57:28;;;;;;;11.57;3.60;;;0.20;83.20;;;;;;5077192;28;20560;-64
2023/03/11 04:59:57;;;;;;;8.40;3.30;;;0.20;76.30;;;;;;5077029;28;20457;-64
2023/03/11 05:02:24;;;;;;;6.80;3.40;;;0.10;72.20;;;;;;5077266;28;20468;-64
2023/03/11 05:04:51;;;;;;;6.60;3.20;;;0.20;96.30;;;;;;5080672;28;20460;-64
2023/03/11 05:07:18;;;;;;;8.13;3.80;;;0.20;99.90;;;;;;5080591;28;20461;-64
2023/03/11 05:09:45;;;;;;;7.60;3.17;;;0.20;99.90;;;;;;5081055;28;20469;-64
2023/03/11 05:12:12;;;;;;;6.67;2.93;;;0.30;99.90;;;;;;5081078;28;20468;-64
2023/03/11 05:14:39;;;;;;;8.27;3.50;;;0.30;99.90;;;;;;5080298;28;20493;-64
2023/03/11 05:17:09;;;;;;;10.30;3.80;;;0.30;99.90;;;;;;5079957;28;20461;-64
2023/03/11 05:19:36;;;;;;;7.87;3.57;;;0.30;99.90;;;;;;5080766;28;20488;-64
2023/03/11 05:22:05;;;;;;;6.77;3.73;;;0.30;99.90;;;;;;5080652;28;20465;-64
2023/03/11 05:24:32;;;;;;;8.40;3.60;;;0.20;97.40;;;;;;5080772;28;20524;-64
2023/03/11 05:27:00;;;;;;;7.10;3.60;;;0.20;76.80;;;;;;5080430;28;20469;-64
2023/03/11 05:29:30;;;;;;;6.37;3.40;;;0.10;23.30;;;;;;5080893;28;20799;-64
2023/03/11 05:31:57;;;;;;;6.30;3.87;;;0.10;1.00;;;;;;5080202;28;20917;-64
2023/03/11 05:34:26;;;;;;;6.10;3.53;;;0.20;1.00;;;;;;5080565;28;20489;-64
2023/03/11 05:36:53;;;;;;;11.10;3.30;;;0.10;1.00;;;;;;5079904;28;20460;-64
2023/03/11 05:39:20;;;;;;;9.37;4.37;;;0.10;1.00;;;;;;5080395;28;20806;-64
2023/03/11 05:41:47;;;;;;;9.90;3.83;;;0.10;1.00;;;;;;5080375;28;20469;-64
2023/03/11 05:44:14;;;;;;;9.30;3.27;;;0.10;1.00;;;;;;5080292;28;20467;-64
2023/03/11 05:46:42;;;;;;;8.37;3.70;;;0.10;1.00;;;;;;5080097;28;20465;-64
2023/03/11 05:49:09;;;;;;;7.93;3.83;;;0.10;8.50;;;;;;5080017;28;20465;-64
2023/03/11 05:51:37;;;;;;;8.77;3.67;;;0.10;26.90;;;;;;5079638;28;20436;-64
2023/03/11 05:54:10;;;;;;;6.33;3.83;;;0.10;26.60;;;;;;5080116;28;20525;-65
2023/03/11 05:56:37;;;;;;;9.70;4.00;;;0.10;38.30;;;;;;5080330;28;20874;-64
2023/03/11 05:59:04;;;;;;;8.97;4.00;;;0.10;9.40;;;;;;5079863;28;20459;-64
2023/03/11 06:01:31;;;;;;;15.30;4.37;;;0.10;1.00;;;;;;5079931;28;20913;-65
2023/03/11 06:03:58;;;;;;;7.63;3.93;;;0.10;1.00;;;;;;5080201;28;20467;-64
2023/03/11 06:06:26;;;;;;;13.20;4.30;;;0.10;1.00;;;;;;5080027;28;20456;-64
2023/03/11 06:08:54;;;;;;;7.10;3.40;;;0.00;1.00;;;;;;5079760;28;20484;-64
2023/03/11 06:11:24;;;;;;;11.50;3.90;;;0.00;1.00;;;;;;5078911;28;20882;-64
2023/03/11 06:13:53;;;;;;;10.43;4.63;;;0.00;1.00;;;;;;5078536;28;20792;-64
2023/03/11 06:16:21;;;;;;;7.30;3.80;;;0.00;1.00;;;;;;5079540;28;20465;-64
2023/03/11 06:22:10;;;;;;;11.23;3.80;;;0.20;1.00;;;;;;5078318;28;20426;-65
2023/03/11 06:24:38;;;;;;;10.00;3.53;;;0.10;1.00;;;;;;5079123;28;20454;-64
2023/03/11 06:27:05;;;;;;;7.03;3.90;;;0.20;1.00;;;;;;5078976;28;20894;-64
2023/03/11 06:29:32;;;;;;;10.23;3.97;;;0.30;1.00;;;;;;5079464;28;20769;-66
2023/03/11 06:31:59;;;;;;;14.63;5.00;;;0.30;1.00;;;;;;5079407;28;20474;-66
2023/03/11 06:34:26;;;;;;;10.60;3.60;;;0.40;1.00;;;;;;5078719;28;20958;-66
2023/03/11 06:36:54;;;;;;;9.40;3.43;;;0.30;1.00;;;;;;5078799;28;20486;-66
2023/03/11 06:39:22;;;;;;;6.63;3.87;;;0.30;1.00;;;;;;5078707;28;20519;-66
2023/03/11 06:41:50;;;;;;;7.00;3.57;;;0.20;1.00;;;;;;5078828;28;20475;-66
2023/03/11 06:44:17;;;;;;;11.17;3.87;;;0.20;1.00;;;;;;5079435;28;20457;-66
2023/03/11 06:46:44;;;;;;;8.57;4.07;;;0.10;1.00;;;;;;5076333;28;20458;-66
2023/03/11 06:49:11;;;;;;;6.03;3.40;;;0.10;1.00;;;;;;5078420;28;20457;-66
2023/03/11 06:51:38;;;;;;;5.63;3.70;;;0.10;1.00;;;;;;5078553;28;20468;-66
2023/03/11 06:54:06;;;;;;;7.70;4.13;;;0.10;1.00;;;;;;5078931;28;20933;-66
2023/03/11 06:56:33;;;;;;;6.87;3.70;;;0.10;1.00;;;;;;5079072;28;20458;-66
2023/03/11 06:59:02;;;;;;;12.73;3.90;;;0.20;1.00;;;;;;5078829;28;20737;-66
2023/03/11 07:01:29;;;;;;;7.30;3.60;;;0.30;1.00;;;;;;5077897;28;20474;-66
2023/03/11 07:03:56;;;;;;;7.10;3.73;;;0.30;1.00;;;;;;5078748;28;20464;-66
2023/03/11 07:06:25;;;;;;;20.50;4.50;;;0.30;1.00;;;;;;5078157;28;20539;-66
2023/03/11 07:08:54;;;;;;;8.27;3.80;;;0.30;1.00;;;;;;5078843;28;20952;-66
2023/03/11 07:11:23;;;;;;;8.43;4.00;;;0.40;1.00;;;;;;5078375;28;20943;-66
2023/03/11 07:13:51;;;;;;;5.37;3.33;;;0.40;1.00;;;;;;5078311;28;20488;-66
2023/03/11 07:16:21;;;;;;;7.40;3.70;;;0.30;1.00;;;;;;5077516;28;20920;-66
2023/03/11 07:18:50;;;;;;;10.53;4.30;;;0.40;1.00;;;;;;5077961;28;20504;-66
2023/03/11 07:21:20;;;;;;;13.43;4.47;;;0.40;1.00;;;;;;5078265;28;20898;-66
2023/03/11 07:23:48;;;;;;;10.80;3.83;;;0.40;1.00;;;;;;5077729;28;20897;-66
2023/03/11 07:26:16;;;;;;;6.77;3.97;;;0.50;1.00;;;;;;5076174;28;20560;-66
2023/03/11 07:28:44;;;;;;;9.17;3.63;;;0.50;1.00;;;;;;5077233;28;20467;-66
2023/03/11 07:31:14;;;;;;;7.00;3.40;;;0.60;1.00;;;;;;5078012;28;20878;-66
2023/03/11 07:33:43;;;;;;;8.57;3.90;;;0.70;1.00;;;;;;5078106;28;20461;-66
2023/03/11 07:36:12;;;;;;;12.27;3.80;;;0.60;1.00;;;;;;5077357;28;20824;-66
2023/03/11 07:38:40;;;;;;;5.03;3.30;;;0.70;1.00;;;;;;5077695;28;20469;-66
2023/03/11 07:41:08;;;;;;;8.53;3.37;;;0.60;1.00;;;;;;5077304;28;20461;-67
2023/03/11 07:43:35;;;;;;;8.40;4.03;;;0.80;1.00;;;;;;5077787;28;20469;-67
2023/03/11 07:46:04;;;;;;;6.87;3.60;;;0.80;1.00;;;;;;5076029;28;20468;-68
2023/03/11 07:48:31;;;;;;;11.40;4.33;;;1.10;1.00;;;;;;5076632;28;20469;-70
2023/03/11 07:51:04;;;;;;;10.40;4.10;;;1.10;1.00;;;;;;5077191;28;20461;-69
2023/03/11 07:53:32;;;;;;;11.13;3.50;;;1.10;1.00;;;;;;5077554;28;20468;-69
2023/03/11 07:56:00;;;;;;;8.63;3.63;;;1.10;1.00;;;;;;5078015;28;20468;-68
2023/03/11 07:58:27;;;;;;;13.17;4.93;;;1.20;1.00;;;;;;5077837;28;20901;-66
2023/03/11 08:00:55;;;;;;;15.97;4.43;;;1.40;1.00;;;;;;5077857;28;20465;-65
2023/03/11 08:03:23;;;;;;;10.00;3.87;;;1.70;1.00;;;;;;5075764;28;20465;-66
2023/03/11 08:05:50;;;;;;;12.40;4.00;;;1.90;1.00;;;;;;5055968;28;20458;-64
2023/03/11 08:08:18;;;;;;;11.63;4.20;;;1.80;1.00;;;;;;5056365;28;20454;-66
2023/03/11 08:10:46;;;;;;;7.77;3.60;;;2.00;1.00;;;;;;5064423;28;20734;-64
2023/03/11 08:13:13;;;;;;;11.60;4.67;;;2.00;1.00;;;;;;5075070;28;20457;-65
2023/03/11 08:15:40;;;;;;;9.33;4.30;;;2.00;1.00;;;;;;5075787;28;20841;-65
2023/03/11 08:18:07;;;;;;;11.23;5.70;;;2.30;1.00;;;;;;5075865;28;20929;-65
2023/03/11 08:20:34;;;;;;;10.93;5.20;;;2.60;1.00;;;;;;5075949;28;20468;-66
2023/03/11 08:23:01;;;;;;;8.03;3.87;;;2.80;1.00;;;;;;5074836;28;20510;-65
2023/03/11 08:25:30;;;;;;;6.43;3.73;;;2.80;1.00;;;;;;5075422;28;20469;-65
2023/03/11 08:27:57;;;;;;;10.20;3.97;;;2.80;1.00;;;;;;5075793;28;20808;-63
2023/03/11 08:30:30;;;;;;;7.97;4.00;;;3.10;1.00;;;;;;5075646;28;20472;-62
2023/03/11 08:32:58;;;;;;;6.73;4.20;;;3.30;1.00;;;;;;5076316;28;20762;-62
2023/03/11 08:35:25;;;;;;;15.03;3.60;;;3.50;1.00;;;;;;5075153;28;20489;-62
2023/03/11 08:37:52;;;;;;;7.43;4.23;;;3.40;1.00;;;;;;5076400;28;20476;-62
2023/03/11 08:40:20;;;;;;;8.40;3.53;;;3.10;99.90;;;;;;5076892;28;20468;-62
2023/03/11 08:42:48;;;;;;;6.57;3.47;;;3.10;99.90;;;;;;5076840;28;20866;-61
2023/03/11 08:45:15;;;;;;;8.53;3.20;;;3.20;99.90;;;;;;5076443;28;20468;-62
2023/03/11 08:47:42;;;;;;;6.00;3.00;;;3.30;99.90;;;;;;5077073;28;20473;-62
2023/03/11 08:50:14;;;;;;;8.13;3.67;;;3.30;99.90;;;;;;5077090;28;20469;-62
2023/03/11 08:52:41;;;;;;;7.70;3.23;;;3.00;99.90;;;;;;5076456;28;20462;-63
2023/03/11 08:55:10;;;;;;;6.00;3.07;;;3.00;99.90;;;;;;5076339;28;20493;-63
2023/03/11 08:57:37;;;;;;;8.83;3.10;;;3.10;99.90;;;;;;5076394;28;20458;-63
2023/03/11 09:00:08;;;;;;;9.60;3.43;;;3.50;99.90;;;;;;5077072;28;20501;-63
2023/03/11 09:02:35;;;;;;;7.37;3.10;;;3.50;99.90;;;;;;5072383;28;20465;-63
2023/03/11 09:05:02;;;;;;;10.00;2.83;;;3.40;99.90;;;;;;5075657;28;20895;-64
2023/03/11 09:07:29;;;;;;;6.00;2.87;;;3.70;99.90;;;;;;5074197;28;20487;-65
2023/03/11 09:09:56;;;;;;;6.70;3.70;;;4.10;99.90;;;;;;5073645;28;20453;-64
2023/03/11 09:12:23;;;;;;;4.40;2.10;;;4.00;99.90;;;;;;5074535;28;20450;-63
2023/03/11 09:14:50;;;;;;;5.97;2.93;;;3.40;99.90;;;;;;5074216;28;20558;-64
2023/03/11 09:17:19;;;;;;;7.67;2.77;;;3.40;99.90;;;;;;5073947;28;20462;-64
2023/03/11 09:19:46;;;;;;;4.03;2.50;;;3.40;99.90;;;;;;5074571;28;20481;-64
2023/03/11 09:22:13;;;;;;;5.80;2.97;;;3.90;99.90;;;;;;5075813;28;20457;-64
2023/03/11 09:24:40;;;;;;;7.70;3.00;;;3.60;99.90;;;;;;5074448;28;20443;-64
2023/03/11 09:27:07;;;;;;;5.03;3.10;;;3.50;99.90;;;;;;5071318;28;20552;-63
2023/03/11 09:29:34;;;;;;;5.97;2.43;;;3.90;99.90;;;;;;5073762;28;20477;-63
2023/03/11 09:32:01;;;;;;;7.17;2.73;;;4.50;99.90;;;;;;5073302;28;20489;-63
2023/03/11 09:34:30;;;;;;;7.47;2.60;;;4.90;99.90;;;;;;5072032;28;20481;-63
2023/03/11 09:36:59;;;;;;;7.30;3.90;;;4.80;99.90;;;;;;5072175;28;20503;-63
2023/03/11 09:39:26;;;;;;;5.50;2.50;;;4.40;99.90;;;;;;5072006;28;20877;-63
2023/03/11 09:41:55;;;;;;;10.20;3.07;;;4.50;99.90;;;;;;5072860;28;20465;-63
2023/03/11 09:44:27;;;;;;;6.13;2.30;;;4.50;99.90;;;;;;5072827;28;20469;-64
2023/03/11 09:47:25;;;;;;;4.70;2.80;;;4.40;99.90;;;;;;5071940;28;20457;-64
2023/03/11 09:50:14;;;;;;;7.00;3.40;;;4.00;99.90;;;;;;5071730;28;20453;-64
2023/03/11 09:52:46;;;;;;;3.90;2.67;;;4.10;99.90;;;;;;5074534;28;20568;-65
2023/03/11 09:55:36;;;;;;;5.67;2.80;;;4.50;99.90;;;;;;5070652;28;20496;-67
2023/03/11 09:58:09;;;;;;;6.50;2.63;;;4.80;99.90;;;;;;5075237;28;20512;-67
2023/03/11 10:00:37;;;;;;;4.90;2.77;;;4.40;99.90;;;;;;5077691;28;20457;-68
2023/03/11 10:03:12;;;;;;;6.00;2.67;;;4.60;99.90;;;;;;5077382;28;20457;-68
2023/03/11 10:05:43;;;;;;;9.70;2.67;;;4.80;99.90;;;;;;5078511;28;20902;-67
2023/03/11 10:08:19;;;;;;;6.37;2.60;;;4.90;99.90;;;;;;5075845;28;20488;-66
2023/03/11 10:10:55;;;;;;;3.53;2.00;;;4.90;99.90;;;;;;5078345;28;20457;-66
2023/03/11 10:13:29;;;;;;;7.27;2.30;;;4.10;99.90;;;;;;5077712;28;20505;-66
2023/03/11 10:16:02;;;;;;;5.63;2.13;;;4.00;99.90;;;;;;5077591;28;20492;-66
2023/03/11 10:18:46;;;;;;;4.20;2.13;;;3.40;99.90;;;;;;5071591;28;20542;-66
2023/03/11 10:21:23;;;;;;;3.80;2.10;;;3.30;99.90;;;;;;5072515;28;20878;-66
2023/03/11 10:24:13;;;;;;;7.37;3.00;;;3.60;99.90;;;;;;5076567;28;20515;-65
2023/03/11 10:26:44;;;;;;;4.33;2.33;;;3.70;99.90;;;;;;5075561;28;20461;-65
2023/03/11 10:29:18;;;;;;;3.93;2.53;;;4.00;99.90;;;;;;5071278;28;20473;-65
2023/03/11 10:31:52;;;;;;;6.37;3.07;;;4.30;99.90;;;;;;5073102;28;20470;-65
2023/03/11 10:34:26;;;;;;;9.30;2.80;;;4.40;99.90;;;;;;5070536;28;20479;-65
2023/03/11 10:37:02;;;;;;;5.43;3.17;;;4.70;99.90;;;;;;5071532;28;20473;-65
2023/03/11 10:39:30;;;;;;;5.93;2.90;;;4.50;99.90;;;;;;5072858;28;20469;-65
2023/03/11 10:42:00;;;;;;;4.37;2.70;;;3.90;99.90;;;;;;5070157;28;20484;-65
2023/03/11 10:44:32;;;;;;;5.30;3.30;;;3.60;99.90;;;;;;5075342;28;20458;-65
2023/03/11 10:46:59;;;;;;;5.40;2.30;;;3.50;99.90;;;;;;5073210;28;20815;-65
2023/03/11 10:49:26;;;;;;;4.67;2.67;;;3.40;99.90;;;;;;5074300;28;20463;-65
2023/03/11 10:51:56;;;;;;;8.27;2.53;;;3.30;99.90;;;;;;5076062;28;20464;-64
2023/03/11 10:54:27;;;;;;;4.90;2.20;;;3.20;99.90;;;;;;5077036;28;20507;-64
2023/03/11 10:56:58;;;;;;;3.63;2.10;;;3.60;99.90;;;;;;5076906;28;20485;-65
2023/03/11 10:59:29;;;;;;;8.77;2.33;;;4.30;99.90;;;;;;5077449;28;20453;-65
2023/03/11 11:01:57;;;;;;;7.23;1.80;;;4.50;99.90;;;;;;5075605;28;20464;-65
2023/03/11 11:04:31;;;;;;;4.80;2.30;;;4.60;99.90;;;;;;5076721;28;20902;-66
2023/03/11 11:07:22;;;;;;;3.37;1.80;;;5.10;99.90;;;;;;5074293;28;20772;-65
2023/03/11 11:10:16;;;;;;;6.53;2.13;;;4.80;99.90;;;;;;5074525;28;20476;-65
2023/03/11 11:12:54;;;;;;;3.53;1.80;;;4.70;99.90;;;;;;5072903;28;20462;-65
2023/03/11 11:15:23;;;;;;;2.80;1.83;;;4.50;99.90;;;;;;5074277;28;20489;-65
2023/03/11 11:17:51;;;;;;;3.13;1.80;;;4.50;99.90;;;;;;5076256;28;20830;-65
2023/03/11 11:20:21;;;;;;;3.47;1.93;;;4.10;99.90;;;;;;5073877;28;20465;-65
2023/03/11 11:22:52;;;;;;;3.83;2.00;;;4.00;99.90;;;;;;5075723;28;20461;-66
2023/03/11 11:25:28;;;;;;;2.93;1.90;;;4.10;99.90;;;;;;5073646;28;20801;-66
2023/03/11 11:27:57;;;;;;;2.70;1.80;;;4.30;99.90;;;;;;5076071;28;20472;-66
2023/03/11 11:30:25;;;;;;;4.70;2.10;;;4.60;99.90;;;;;;5077130;28;20457;-66
2023/03/11 11:32:54;;;;;;;2.10;1.60;;;5.30;99.90;;;;;;5073430;28;20913;-66
2023/03/11 11:35:22;;;;;;;4.30;2.10;;;5.90;99.90;;;;;;5075927;28;20944;-66
2023/03/11 11:37:54;;;;;;;4.47;2.07;;;6.20;99.90;;;;;;5074955;28;20461;-66
2023/03/11 11:40:27;;;;;;;3.43;1.83;;;6.70;99.90;;;;;;5076260;28;20460;-67
2023/03/11 11:42:57;;;;;;;4.90;2.63;;;7.30;99.90;;;;;;5073298;28;20452;-67
2023/03/11 11:45:36;;;;;;;7.07;2.53;;;7.60;99.90;;;;;;5075988;28;20457;-65
2023/03/11 11:48:12;;;;;;;3.20;2.03;;;7.00;99.90;;;;;;5075012;28;20461;-65
2023/03/11 11:50:44;;;;;;;3.53;1.80;;;6.80;99.90;;;;;;5074293;28;20460;-65
2023/03/11 11:53:24;;;;;;;4.60;2.37;;;6.70;99.90;;;;;;5073617;28;20898;-64
2023/03/11 11:55:52;;;;;;;3.27;2.00;;;5.60;99.90;;;;;;5064463;28;20492;-64
2023/03/11 11:58:20;;;;;;;3.63;2.10;;;5.20;99.90;;;;;;5075952;28;20487;-64
2023/03/11 12:01:03;;;;;;;4.43;2.20;;;5.40;99.90;;;;;;5073903;28;20531;-64
2023/03/11 12:03:55;;;;;;;3.93;2.00;;;5.20;99.90;;;;;;5074456;28;20809;-64
2023/03/11 12:06:27;;;;;;;2.80;1.83;;;5.00;99.90;;;;;;5073281;28;20453;-65
2023/03/11 12:09:09;;;;;;;5.77;2.13;;;4.60;99.90;;;;;;5075910;28;20485;-64
2023/03/11 12:11:41;;;;;;;3.13;2.10;;;4.80;99.90;;;;;;5075453;28;20491;-64
2023/03/11 12:14:16;;;;;;;6.90;2.20;;;4.80;99.90;;;;;;5075454;28;20449;-64
2023/03/11 12:16:53;;;;;;;5.73;2.60;;;5.10;99.90;;;;;;5075874;28;20531;-64
2023/03/11 12:19:31;;;;;;;3.10;1.70;;;5.50;99.90;;;;;;5075701;28;20489;-64
2023/03/11 12:22:26;;;;;;;3.33;2.40;;;6.00;99.90;;;;;;5075468;28;20453;-64
2023/03/11 12:25:20;;;;;;;3.70;1.90;;;6.30;99.90;;;;;;5070035;28;20473;-64
2023/03/11 12:27:54;;;;;;;3.87;1.77;;;6.60;99.90;;;;;;5072302;28;20497;-64
2023/03/11 12:30:27;;;;;;;2.40;1.70;;;7.10;99.90;;;;;;5072417;28;20449;-64
2023/03/11 12:32:58;;;;;;;3.10;2.00;;;7.30;99.90;;;;;;5071539;28;20453;-65
2023/03/11 12:35:28;;;;;;;2.90;1.80;;;8.20;99.90;;;;;;5074589;28;20930;-65
2023/03/11 12:37:59;;;;;;;2.60;1.67;;;9.10;99.90;;;;;;5076719;28;20467;-65
2023/03/11 12:40:58;;;;;;;5.60;2.17;;;8.30;99.90;;;;;;5075486;28;20465;-64
2023/03/11 12:43:28;;;;;;;5.37;3.23;;;8.50;99.90;;;;;;5073328;28;20556;-65
2023/03/11 12:45:58;;;;;;;2.37;2.17;;;8.30;99.90;;;;;;5075556;28;20452;-65
2023/03/11 12:48:36;;;;;;;5.53;2.27;;;7.90;99.90;;;;;;5075751;28;20555;-65
2023/03/11 12:51:06;;;;;;;4.30;2.30;;;7.80;99.90;;;;;;5072688;28;20906;-65
2023/03/11 12:53:44;;;;;;;4.13;2.20;;;7.50;99.90;;;;;;5074782;28;20508;-65
2023/03/11 12:56:25;;;;;;;8.27;2.10;;;7.40;99.90;;;;;;5074600;28;20883;-66
2023/03/11 12:59:23;;;;;;;3.60;2.17;;;7.40;99.90;;;;;;5057496;28;20528;-66
2023/03/11 13:02:11;;;;;;;3.83;2.80;;;7.10;99.90;;;;;;5075506;28;20522;-66
2023/03/11 13:04:51;;;;;;;6.07;2.30;;;6.80;99.90;;;;;;5073341;28;20832;-65
2023/03/11 13:07:37;;;;;;;4.27;2.10;;;6.40;99.90;;;;;;5074756;28;20807;-65
2023/03/11 13:10:16;;;;;;;4.67;2.50;;;6.10;99.90;;;;;;5073355;28;20454;-65
2023/03/11 13:12:47;;;;;;;6.13;2.00;;;6.30;99.90;;;;;;5073906;28;20461;-66
2023/03/11 13:15:34;;;;;;;3.03;2.00;;;6.60;99.90;;;;;;5075669;28;20461;-66